Time;durP1;ratioP1;P1;durP2;ratioP2;P2;SDS_P1;SDS_P2;PMS_P1;PMS_P2;Temp;Humidity;BMP_temperature;BMP_pressure;BME280_temperature;BME280_humidity;BME280_pressure;Samples;Min_cycle;Max_cycle;Signal;HPM_P1;HPM_P2
2023/10/04 00:00:15;;;;;;;2.87;1.90;;;13.00;98.00;;;;;;5153583;27;20459;-71
2023/10/04 00:02:44;;;;;;;3.80;2.07;;;13.30;98.00;;;;;;5153871;27;20448;-71
2023/10/04 00:05:14;;;;;;;2.97;1.80;;;13.40;98.00;;;;;;5153701;27;20496;-71
2023/10/04 00:07:45;;;;;;;3.50;2.30;;;13.30;98.00;;;;;;5153346;27;20949;-71
2023/10/04 00:10:13;;;;;;;8.37;2.20;;;13.30;98.00;;;;;;5156027;27;20481;-71
2023/10/04 00:12:43;;;;;;;5.10;2.03;;;13.10;98.00;;;;;;5157783;27;20437;-71
2023/10/04 00:15:12;;;;;;;3.40;2.10;;;13.00;98.00;;;;;;5157336;27;20463;-71
2023/10/04 00:17:42;;;;;;;3.77;2.03;;;13.00;98.00;;;;;;5157657;27;20460;-71
2023/10/04 00:20:10;;;;;;;4.13;2.17;;;13.00;98.00;;;;;;5157339;27;20484;-71
2023/10/04 00:22:39;;;;;;;4.07;2.27;;;12.90;98.00;;;;;;5157406;27;20523;-71
2023/10/04 00:25:11;;;;;;;4.00;2.10;;;12.90;98.00;;;;;;5157023;27;20523;-71
2023/10/04 00:27:40;;;;;;;4.43;2.13;;;13.00;98.00;;;;;;5157137;27;20456;-71
2023/10/04 00:30:11;;;;;;;2.97;2.23;;;13.00;98.00;;;;;;5156958;27;20973;-71
2023/10/04 00:32:38;;;;;;;3.63;2.10;;;13.00;98.00;;;;;;5157122;27;20527;-71
2023/10/04 00:35:08;;;;;;;2.50;1.80;;;12.90;98.00;;;;;;5157050;27;20570;-71
2023/10/04 00:37:36;;;;;;;3.33;2.00;;;12.90;98.00;;;;;;5157288;27;20486;-71
2023/10/04 00:40:09;;;;;;;3.07;1.80;;;12.80;98.00;;;;;;5157094;27;20452;-71
2023/10/04 00:42:38;;;;;;;4.27;2.10;;;12.70;98.00;;;;;;5156754;27;20455;-70
2023/10/04 00:45:09;;;;;;;3.60;2.20;;;12.80;98.00;;;;;;5156100;27;20538;-71
2023/10/04 00:47:36;;;;;;;3.80;2.20;;;12.60;98.00;;;;;;5156159;27;21073;-71
2023/10/04 00:50:14;;;;;;;4.50;2.00;;;12.40;98.00;;;;;;5155903;27;20484;-71
2023/10/04 00:52:46;;;;;;;4.20;2.10;;;12.20;98.00;;;;;;5156147;27;20543;-71
2023/10/04 00:55:17;;;;;;;4.00;2.17;;;12.10;98.00;;;;;;5156523;27;20452;-71
2023/10/04 00:57:48;;;;;;;2.50;1.80;;;12.20;98.00;;;;;;5156681;27;20952;-71
2023/10/04 01:00:17;;;;;;;5.37;2.27;;;12.20;98.00;;;;;;5156646;27;20445;-71
2023/10/04 01:02:45;;;;;;;3.07;1.90;;;12.10;98.00;;;;;;5156774;27;20920;-71
2023/10/04 01:05:15;;;;;;;2.53;1.80;;;12.20;98.00;;;;;;5156535;27;20456;-71
2023/10/04 01:07:43;;;;;;;4.13;2.10;;;12.10;98.00;;;;;;5156364;27;20471;-71
2023/10/04 01:10:15;;;;;;;9.10;2.30;;;12.20;98.00;;;;;;5156392;27;20487;-71
2023/10/04 01:12:44;;;;;;;3.60;1.97;;;12.20;98.00;;;;;;5156682;27;20455;-71
2023/10/04 01:15:30;;;;;;;3.50;1.97;;;12.30;98.00;;;;;;5156289;27;20931;-71
2023/10/04 01:17:59;;;;;;;3.60;2.17;;;12.30;98.00;;;;;;5156396;27;20520;-71
2023/10/04 01:20:29;;;;;;;2.47;1.90;;;12.30;98.00;;;;;;5155760;27;20440;-71
2023/10/04 01:23:00;;;;;;;3.63;2.03;;;12.30;98.00;;;;;;5155983;27;20445;-71
2023/10/04 01:25:31;;;;;;;3.77;2.10;;;12.30;98.00;;;;;;5156413;27;20445;-71
2023/10/04 01:27:59;;;;;;;3.40;2.00;;;12.40;98.00;;;;;;5155653;27;20456;-71
2023/10/04 01:30:27;;;;;;;4.10;2.27;;;12.40;98.00;;;;;;5137284;27;21042;-71
2023/10/04 01:32:54;;;;;;;3.40;2.27;;;12.40;98.00;;;;;;5156216;27;20452;-71
2023/10/04 01:35:23;;;;;;;2.80;2.10;;;12.40;98.00;;;;;;5156344;27;20997;-70
2023/10/04 01:37:52;;;;;;;3.20;2.23;;;12.20;98.00;;;;;;5156009;27;20448;-71
2023/10/04 01:40:25;;;;;;;3.60;1.97;;;12.10;98.00;;;;;;5156085;27;20481;-71
2023/10/04 01:42:55;;;;;;;2.60;1.90;;;12.20;98.00;;;;;;5156212;27;20488;-71
2023/10/04 01:45:23;;;;;;;3.00;2.00;;;12.20;98.00;;;;;;5156235;27;20442;-71
2023/10/04 01:47:50;;;;;;;3.43;2.23;;;12.10;98.00;;;;;;5155647;27;20491;-71
2023/10/04 01:50:17;;;;;;;4.23;2.40;;;12.30;98.00;;;;;;5155800;27;20508;-71
2023/10/04 01:52:49;;;;;;;2.33;1.83;;;12.30;98.00;;;;;;5155929;27;20500;-71
2023/10/04 01:55:17;;;;;;;3.10;2.00;;;12.50;98.00;;;;;;5155286;27;20448;-71
2023/10/04 01:57:46;;;;;;;5.00;2.23;;;12.40;98.00;;;;;;5155444;27;20449;-71
2023/10/04 02:00:17;;;;;;;4.40;1.90;;;12.40;98.00;;;;;;5120010;27;20461;-71
2023/10/04 02:02:47;;;;;;;3.93;1.90;;;12.40;98.00;;;;;;5155329;27;20462;-71
2023/10/04 02:05:19;;;;;;;5.10;2.30;;;12.30;98.00;;;;;;5155052;27;20452;-71
2023/10/04 02:07:46;;;;;;;3.10;1.97;;;12.20;98.00;;;;;;5155389;27;20464;-70
2023/10/04 02:10:17;;;;;;;3.13;2.10;;;12.20;98.00;;;;;;5155292;27;20891;-71
2023/10/04 02:12:46;;;;;;;3.53;2.20;;;12.40;98.00;;;;;;5155457;27;20451;-71
2023/10/04 02:15:17;;;;;;;3.63;2.17;;;12.40;98.00;;;;;;5155024;27;20452;-71
2023/10/04 02:17:45;;;;;;;5.50;2.17;;;12.40;98.00;;;;;;5155044;27;20483;-70
2023/10/04 02:20:21;;;;;;;2.83;2.13;;;12.50;98.00;;;;;;5155118;27;20446;-70
2023/10/04 02:22:48;;;;;;;3.63;2.00;;;12.60;98.00;;;;;;5155080;27;20537;-71
2023/10/04 02:25:17;;;;;;;3.60;2.10;;;12.70;98.00;;;;;;5154795;27;20866;-71
2023/10/04 02:27:46;;;;;;;4.40;2.50;;;12.60;98.00;;;;;;5154722;27;20921;-70
2023/10/04 02:30:21;;;;;;;5.17;2.20;;;12.40;98.00;;;;;;5154548;27;20998;-71
2023/10/04 02:32:49;;;;;;;3.50;1.90;;;12.40;98.00;;;;;;5154145;27;20454;-71
2023/10/04 02:35:25;;;;;;;3.20;2.30;;;12.40;98.00;;;;;;5154150;27;20493;-71
2023/10/04 02:37:54;;;;;;;2.93;2.20;;;12.60;98.00;;;;;;5154761;27;20539;-71
2023/10/04 02:40:22;;;;;;;2.27;1.93;;;12.50;98.00;;;;;;5154660;27;20490;-70
2023/10/04 02:42:54;;;;;;;2.50;1.90;;;12.40;98.00;;;;;;5154689;27;20450;-70
2023/10/04 02:45:21;;;;;;;5.70;2.10;;;12.40;98.00;;;;;;5136602;27;20535;-71
2023/10/04 02:47:49;;;;;;;4.87;2.50;;;12.40;98.00;;;;;;5154594;27;20455;-70
2023/10/04 02:50:19;;;;;;;9.53;2.23;;;12.50;98.00;;;;;;5154324;27;21034;-70
2023/10/04 02:52:46;;;;;;;3.70;2.17;;;12.40;98.00;;;;;;5154561;27;20500;-71
2023/10/04 02:55:17;;;;;;;3.87;2.10;;;12.40;98.00;;;;;;5154547;27;20451;-71
2023/10/04 02:57:46;;;;;;;4.40;2.50;;;12.50;98.00;;;;;;5154594;27;20503;-71
2023/10/04 03:00:19;;;;;;;4.40;2.30;;;12.40;98.00;;;;;;5154370;27;20909;-70
2023/10/04 03:02:47;;;;;;;5.07;2.20;;;12.20;98.00;;;;;;5154626;27;20444;-71
2023/10/04 03:05:18;;;;;;;3.33;2.23;;;12.00;98.00;;;;;;5154379;27;20445;-71
2023/10/04 03:07:47;;;;;;;3.57;2.20;;;12.10;98.00;;;;;;5153728;27;20873;-71
2023/10/04 03:10:24;;;;;;;3.47;2.30;;;11.90;98.00;;;;;;5154071;27;20480;-71
2023/10/04 03:12:53;;;;;;;3.67;1.97;;;11.80;98.00;;;;;;5154192;27;20937;-70
2023/10/04 03:15:23;;;;;;;2.93;2.00;;;11.70;98.00;;;;;;5136316;27;20447;-70
2023/10/04 03:17:52;;;;;;;4.90;2.37;;;11.80;98.00;;;;;;5154271;27;20438;-71
2023/10/04 03:20:21;;;;;;;6.37;2.63;;;11.70;98.00;;;;;;5154205;27;20471;-71
2023/10/04 03:22:49;;;;;;;5.50;3.10;;;11.80;98.00;;;;;;5154322;27;20454;-70
2023/10/04 03:25:17;;;;;;;4.30;2.40;;;11.80;98.00;;;;;;5154061;27;20450;-71
2023/10/04 03:27:47;;;;;;;5.00;2.33;;;12.00;98.00;;;;;;5153960;27;20459;-70
2023/10/04 03:30:15;;;;;;;5.20;3.10;;;11.80;98.00;;;;;;5153603;27;20473;-71
2023/10/04 03:32:51;;;;;;;2.60;1.80;;;11.80;98.00;;;;;;5154210;27;20467;-71
2023/10/04 03:35:21;;;;;;;7.20;2.50;;;11.90;98.00;;;;;;5136314;27;20953;-70
2023/10/04 03:37:54;;;;;;;2.60;1.90;;;11.80;98.00;;;;;;5153688;27;20951;-70
2023/10/04 03:40:22;;;;;;;3.10;1.97;;;11.80;98.00;;;;;;5153842;27;20453;-70
2023/10/04 03:42:49;;;;;;;2.90;2.13;;;11.90;98.00;;;;;;5153567;27;20449;-71
2023/10/04 03:45:18;;;;;;;3.70;2.47;;;11.60;98.00;;;;;;5153634;27;20449;-70
2023/10/04 03:47:50;;;;;;;4.30;2.20;;;11.50;98.00;;;;;;5135380;27;20451;-70
2023/10/04 03:50:19;;;;;;;2.63;2.00;;;11.50;98.00;;;;;;5153519;27;20473;-71
2023/10/04 03:52:47;;;;;;;2.60;1.87;;;11.70;98.00;;;;;;5153711;27;20448;-70
2023/10/04 03:55:15;;;;;;;4.23;2.53;;;11.70;98.00;;;;;;5153394;27;20449;-70
2023/10/04 03:57:44;;;;;;;3.37;2.00;;;11.60;98.00;;;;;;5153486;27;20451;-70
2023/10/04 04:00:15;;;;;;;3.33;2.10;;;11.40;98.00;;;;;;5153405;27;20458;-70
2023/10/04 04:02:43;;;;;;;3.40;2.13;;;11.30;98.00;;;;;;5135418;27;20480;-71
2023/10/04 04:05:14;;;;;;;7.93;2.43;;;11.20;98.00;;;;;;5153445;27;20459;-71
2023/10/04 04:07:41;;;;;;;3.83;2.53;;;11.30;98.00;;;;;;5135350;27;20483;-70
2023/10/04 04:10:14;;;;;;;3.20;2.07;;;11.20;98.00;;;;;;5153346;27;20448;-70
2023/10/04 04:12:42;;;;;;;2.77;1.87;;;11.20;98.00;;;;;;5153515;27;20449;-70
2023/10/04 04:15:10;;;;;;;2.63;2.00;;;11.20;98.00;;;;;;5153533;27;20873;-71
2023/10/04 04:17:39;;;;;;;2.10;1.83;;;11.40;98.00;;;;;;5153364;27;20539;-71
2023/10/04 04:20:14;;;;;;;3.57;2.00;;;11.70;98.00;;;;;;5153196;27;20448;-71
2023/10/04 04:22:45;;;;;;;4.10;2.20;;;11.80;98.00;;;;;;5153424;27;20454;-70
2023/10/04 04:25:15;;;;;;;3.30;2.30;;;11.80;98.00;;;;;;5153273;27;20481;-70
2023/10/04 04:27:47;;;;;;;4.87;2.30;;;11.80;98.00;;;;;;5133574;27;20961;-71
2023/10/04 04:30:19;;;;;;;2.80;2.10;;;11.70;98.00;;;;;;5153147;27;20832;-70
2023/10/04 04:32:48;;;;;;;3.00;2.20;;;11.70;98.00;;;;;;5153354;27;20452;-71
2023/10/04 04:35:23;;;;;;;7.20;2.40;;;11.50;98.00;;;;;;5153172;27;20779;-71
2023/10/04 04:37:54;;;;;;;3.10;2.03;;;11.50;98.00;;;;;;5153285;27;20942;-71
2023/10/04 04:40:26;;;;;;;3.97;2.57;;;11.50;98.00;;;;;;5153082;27;20949;-70
2023/10/04 04:43:01;;;;;;;4.40;2.50;;;11.40;98.00;;;;;;5153180;27;20451;-71
2023/10/04 04:45:29;;;;;;;4.80;2.90;;;11.40;98.00;;;;;;5152729;27;20454;-70
2023/10/04 04:47:57;;;;;;;3.87;2.40;;;11.40;98.00;;;;;;5153135;27;20455;-71
2023/10/04 04:50:25;;;;;;;4.67;2.70;;;11.20;98.00;;;;;;5152942;27;20453;-70
2023/10/04 04:52:54;;;;;;;5.30;2.57;;;11.30;98.00;;;;;;5153215;27;20451;-71
2023/10/04 04:55:26;;;;;;;15.13;2.80;;;11.30;98.00;;;;;;5154124;27;20541;-70
2023/10/04 04:57:56;;;;;;;6.00;2.40;;;11.40;98.00;;;;;;5156919;27;21009;-71
2023/10/04 05:00:33;;;;;;;5.63;2.53;;;11.40;98.00;;;;;;5157040;27;20448;-71
2023/10/04 05:03:02;;;;;;;3.40;2.43;;;11.40;98.00;;;;;;5156794;27;20442;-70
2023/10/04 05:05:32;;;;;;;3.97;2.40;;;11.40;98.00;;;;;;5156963;27;20485;-71
2023/10/04 05:08:00;;;;;;;4.80;2.40;;;11.40;98.00;;;;;;5156844;27;20456;-70
2023/10/04 05:10:34;;;;;;;3.00;2.00;;;11.30;98.00;;;;;;5156807;27;20446;-70
2023/10/04 05:13:01;;;;;;;4.17;2.53;;;11.20;98.00;;;;;;5156408;27;20454;-70
2023/10/04 05:15:32;;;;;;;2.63;2.10;;;11.20;98.00;;;;;;5156428;27;20943;-71
2023/10/04 05:18:03;;;;;;;3.23;2.23;;;10.90;98.00;;;;;;5156441;27;20526;-70
2023/10/04 05:20:31;;;;;;;4.60;2.40;;;11.00;98.00;;;;;;5156061;27;20451;-71
2023/10/04 05:23:00;;;;;;;4.07;2.30;;;11.00;98.00;;;;;;5156347;27;20462;-71
2023/10/04 05:25:28;;;;;;;5.70;2.33;;;10.90;98.00;;;;;;5155929;27;20442;-71
2023/10/04 05:28:03;;;;;;;3.70;2.30;;;10.80;98.00;;;;;;5155980;27;20825;-70
2023/10/04 05:30:31;;;;;;;3.00;2.10;;;10.80;98.00;;;;;;5155841;27;20452;-70
2023/10/04 05:32:58;;;;;;;3.10;2.23;;;10.90;98.00;;;;;;5156043;27;20480;-71
2023/10/04 05:35:26;;;;;;;2.70;1.97;;;10.90;98.00;;;;;;5137650;27;20489;-71
2023/10/04 05:37:53;;;;;;;3.50;2.23;;;10.80;98.00;;;;;;5155918;27;20474;-71
2023/10/04 05:40:27;;;;;;;3.67;2.33;;;10.90;98.00;;;;;;5155818;27;20450;-71
2023/10/04 05:42:54;;;;;;;3.20;1.97;;;11.00;98.00;;;;;;5155930;27;20482;-71
2023/10/04 05:45:22;;;;;;;5.07;2.80;;;11.00;98.00;;;;;;5155754;27;20447;-70
2023/10/04 05:47:50;;;;;;;3.90;2.10;;;11.00;98.00;;;;;;5155681;27;20530;-70
2023/10/04 05:50:20;;;;;;;5.77;2.60;;;11.00;98.00;;;;;;5155576;27;20500;-70
2023/10/04 05:52:48;;;;;;;3.07;2.23;;;10.90;98.00;;;;;;5155624;27;21101;-71
2023/10/04 05:55:16;;;;;;;4.30;2.50;;;10.90;98.00;;;;;;5155457;27;20446;-70
2023/10/04 05:57:46;;;;;;;4.00;2.50;;;11.10;98.00;;;;;;5155484;27;20980;-67
2023/10/04 06:00:25;;;;;;;4.03;2.47;;;11.10;98.00;;;;;;5155353;27;20495;-66
2023/10/04 06:02:53;;;;;;;8.30;2.50;;;11.20;98.00;;;;;;5155560;27;20453;-66
2023/10/04 06:05:22;;;;;;;5.80;2.57;;;11.20;98.00;;;;;;5155338;27;20552;-65
2023/10/04 06:07:52;;;;;;;5.00;2.87;;;11.20;98.00;;;;;;5155381;27;20921;-66
2023/10/04 06:10:19;;;;;;;3.63;2.60;;;11.30;98.00;;;;;;5155329;27;20865;-66
2023/10/04 06:12:48;;;;;;;3.90;2.57;;;11.40;98.00;;;;;;5155227;27;20476;-66
2023/10/04 06:15:16;;;;;;;3.40;2.30;;;11.60;98.00;;;;;;5154054;27;20452;-66
2023/10/04 06:17:45;;;;;;;4.63;2.53;;;11.70;98.00;;;;;;5137275;27;20448;-66
2023/10/04 06:20:28;;;;;;;4.60;2.20;;;11.50;98.00;;;;;;5154950;27;20553;-66
2023/10/04 06:22:59;;;;;;;3.70;2.50;;;11.40;98.00;;;;;;5155138;27;20455;-66
2023/10/04 06:25:27;;;;;;;4.27;2.30;;;11.40;98.00;;;;;;5155344;27;20997;-66
2023/10/04 06:27:57;;;;;;;3.10;2.30;;;11.30;98.00;;;;;;5155066;27;20453;-66
2023/10/04 06:30:26;;;;;;;4.03;2.37;;;11.40;98.00;;;;;;5155131;27;20547;-66
2023/10/04 06:32:55;;;;;;;3.57;2.37;;;11.40;98.00;;;;;;5155032;27;20482;-66
2023/10/04 06:35:24;;;;;;;3.70;2.20;;;11.40;98.00;;;;;;5154951;27;20858;-65
2023/10/04 06:37:52;;;;;;;3.30;2.33;;;11.50;98.00;;;;;;5136957;27;20475;-66
2023/10/04 06:40:20;;;;;;;4.93;2.50;;;11.60;98.00;;;;;;5136832;27;20452;-65
2023/10/04 06:42:49;;;;;;;4.10;2.17;;;11.60;98.00;;;;;;5155055;27;20805;-66
2023/10/04 06:45:18;;;;;;;5.60;2.50;;;11.60;98.00;;;;;;5154798;27;21182;-66
2023/10/04 06:47:47;;;;;;;3.40;2.30;;;11.70;98.00;;;;;;5154736;27;20503;-66
2023/10/04 06:50:15;;;;;;;5.30;2.63;;;11.70;98.00;;;;;;5154865;27;20497;-65
2023/10/04 06:52:43;;;;;;;3.20;2.20;;;11.40;98.00;;;;;;5154404;27;20485;-65
2023/10/04 06:55:11;;;;;;;4.93;2.90;;;11.50;98.00;;;;;;5154540;27;20471;-66
2023/10/04 06:57:39;;;;;;;4.40;2.40;;;11.60;98.00;;;;;;5154459;27;20945;-65
2023/10/04 07:00:14;;;;;;;3.93;2.57;;;11.70;98.00;;;;;;5154247;27;20455;-66
2023/10/04 07:02:47;;;;;;;3.00;2.43;;;11.80;98.00;;;;;;5154524;27;20465;-65
2023/10/04 07:05:17;;;;;;;6.30;2.70;;;11.80;98.00;;;;;;5154330;27;20452;-66
2023/10/04 07:07:45;;;;;;;4.67;2.80;;;11.90;98.00;;;;;;5154103;27;20442;-65
2023/10/04 07:10:15;;;;;;;3.70;2.77;;;12.10;98.00;;;;;;5153891;27;20444;-65
2023/10/04 07:12:43;;;;;;;4.60;2.57;;;12.10;98.00;;;;;;5154148;27;20554;-66
2023/10/04 07:15:12;;;;;;;4.93;2.80;;;12.40;98.00;;;;;;5154076;27;20458;-66
2023/10/04 07:17:40;;;;;;;7.10;3.30;;;12.50;98.00;;;;;;5135271;27;20455;-65
2023/10/04 07:20:14;;;;;;;5.30;3.20;;;12.50;98.00;;;;;;5153860;27;20534;-66
2023/10/04 07:22:43;;;;;;;8.80;3.60;;;12.50;98.00;;;;;;5153959;27;20461;-65
2023/10/04 07:25:12;;;;;;;4.73;2.93;;;12.70;98.00;;;;;;5154016;27;20524;-65
2023/10/04 07:27:40;;;;;;;6.30;3.47;;;12.60;98.00;;;;;;5153915;27;20527;-66
2023/10/04 07:30:12;;;;;;;5.80;3.37;;;12.70;98.00;;;;;;5153793;27;20481;-65
2023/10/04 07:32:41;;;;;;;11.40;3.40;;;12.80;98.00;;;;;;5153760;27;20491;-66
2023/10/04 07:35:12;;;;;;;9.20;3.90;;;12.60;98.00;;;;;;5135484;27;20787;-66
2023/10/04 07:37:39;;;;;;;6.40;3.13;;;12.50;98.00;;;;;;5153226;27;20478;-65
2023/10/04 07:40:10;;;;;;;5.50;3.23;;;12.60;98.00;;;;;;5152850;27;20450;-65
2023/10/04 07:42:38;;;;;;;6.23;3.47;;;12.70;98.00;;;;;;5153021;27;20454;-66
2023/10/04 07:45:07;;;;;;;6.40;3.40;;;12.80;98.00;;;;;;5152902;27;20811;-65
2023/10/04 07:47:36;;;;;;;7.23;3.60;;;13.00;98.00;;;;;;5152930;27;21054;-65
2023/10/04 07:50:04;;;;;;;4.97;3.30;;;13.00;98.00;;;;;;5152764;27;20451;-65
2023/10/04 07:52:33;;;;;;;6.40;3.27;;;13.20;98.00;;;;;;5131689;27;20569;-65
2023/10/04 07:55:00;;;;;;;6.20;3.13;;;13.30;98.00;;;;;;5131646;28;20461;-66
2023/10/04 07:57:28;;;;;;;3.70;2.80;;;13.40;98.00;;;;;;5131917;28;20499;-65
2023/10/04 07:59:55;;;;;;;6.80;2.67;;;13.40;98.00;;;;;;5131716;28;20446;-66
2023/10/04 08:02:23;;;;;;;3.80;2.50;;;13.50;98.00;;;;;;5131866;28;20446;-65
2023/10/04 08:04:50;;;;;;;4.90;3.00;;;13.50;98.00;;;;;;5131883;28;20737;-66
2023/10/04 08:07:18;;;;;;;4.20;2.80;;;13.70;98.00;;;;;;5131806;28;20843;-65
2023/10/04 08:09:47;;;;;;;3.50;2.50;;;13.80;98.00;;;;;;5113201;28;20503;-66
2023/10/04 08:12:15;;;;;;;2.60;2.10;;;13.80;98.00;;;;;;5131597;28;20472;-66
2023/10/04 08:14:42;;;;;;;4.30;2.67;;;13.90;98.00;;;;;;5131671;28;20452;-66
2023/10/04 08:17:09;;;;;;;4.03;2.77;;;14.20;98.00;;;;;;5131654;28;20507;-66
2023/10/04 08:19:37;;;;;;;3.70;2.50;;;14.30;98.00;;;;;;5131722;28;20493;-66
2023/10/04 08:22:09;;;;;;;3.83;2.40;;;14.40;98.00;;;;;;5113418;28;20457;-66
2023/10/04 08:24:37;;;;;;;4.90;2.70;;;14.70;98.00;;;;;;5130449;28;20924;-65
2023/10/04 08:27:06;;;;;;;5.93;3.20;;;14.80;98.00;;;;;;5130961;28;20465;-66
2023/10/04 08:29:35;;;;;;;4.57;2.63;;;14.90;98.00;;;;;;5131871;27;20475;-66
2023/10/04 08:32:03;;;;;;;4.20;2.67;;;14.90;98.00;;;;;;5135755;27;20485;-66
2023/10/04 08:34:30;;;;;;;3.90;2.50;;;15.00;98.00;;;;;;5136189;27;20481;-66
2023/10/04 08:36:57;;;;;;;4.97;2.83;;;15.10;98.00;;;;;;5135995;27;20450;-66
2023/10/04 08:39:25;;;;;;;6.00;2.90;;;15.10;98.00;;;;;;5135779;27;21060;-66
2023/10/04 08:41:53;;;;;;;3.90;2.60;;;15.10;98.00;;;;;;5135692;27;20990;-66
2023/10/04 08:44:22;;;;;;;4.37;2.43;;;15.20;98.00;;;;;;5135719;27;20491;-66
2023/10/04 08:46:53;;;;;;;5.17;2.07;;;15.30;98.00;;;;;;5135758;27;20872;-66
2023/10/04 08:49:25;;;;;;;2.83;2.10;;;15.40;98.00;;;;;;5135507;27;20454;-66
2023/10/04 08:52:00;;;;;;;3.40;2.20;;;15.80;98.00;;;;;;5135420;27;20477;-66
2023/10/04 08:54:28;;;;;;;2.80;2.03;;;16.00;98.00;;;;;;5135342;27;20457;-71
2023/10/04 08:57:03;;;;;;;4.67;1.80;;;16.20;98.00;;;;;;5135335;27;20445;-69
2023/10/04 08:59:34;;;;;;;3.43;2.03;;;16.50;98.00;;;;;;5117579;27;20449;-70
2023/10/04 09:02:02;;;;;;;4.53;2.20;;;16.80;98.00;;;;;;5135226;27;20458;-67
2023/10/04 09:04:29;;;;;;;2.40;1.80;;;17.00;98.00;;;;;;5135331;27;20499;-67
2023/10/04 09:06:57;;;;;;;5.03;2.13;;;17.10;98.00;;;;;;5134972;27;20450;-67
2023/10/04 09:09:27;;;;;;;3.27;2.10;;;17.20;98.00;;;;;;5135101;27;20544;-67
2023/10/04 09:11:55;;;;;;;4.47;1.90;;;17.20;98.00;;;;;;5116626;27;20834;-67
2023/10/04 09:14:22;;;;;;;2.57;2.00;;;17.30;98.00;;;;;;5116882;27;20458;-67
2023/10/04 09:17:07;;;;;;;4.97;2.40;;;17.40;98.00;;;;;;5134754;27;20927;-67
2023/10/04 09:19:34;;;;;;;2.27;2.00;;;17.40;98.00;;;;;;5135164;27;20510;-70
2023/10/04 09:22:06;;;;;;;6.10;2.20;;;17.60;98.00;;;;;;5136100;27;20452;-70
2023/10/04 09:24:37;;;;;;;3.60;2.40;;;18.00;98.00;;;;;;5135513;27;20450;-65
2023/10/04 09:27:04;;;;;;;4.20;2.00;;;18.30;98.00;;;;;;5134949;27;20465;-66
2023/10/04 09:29:33;;;;;;;4.60;2.40;;;18.50;98.00;;;;;;5135969;27;21040;-65
2023/10/04 09:32:02;;;;;;;2.90;1.90;;;18.50;98.00;;;;;;5134934;27;20843;-66
2023/10/04 09:34:33;;;;;;;4.50;2.40;;;18.50;98.00;;;;;;5134716;27;20450;-66
2023/10/04 09:37:01;;;;;;;2.73;2.00;;;18.40;98.00;;;;;;5136220;27;20454;-62
2023/10/04 09:39:31;;;;;;;6.07;1.70;;;18.50;98.00;;;;;;5154494;27;20466;-62
2023/10/04 09:42:00;;;;;;;3.80;2.00;;;18.40;98.00;;;;;;5155582;27;20449;-61
2023/10/04 09:44:29;;;;;;;6.33;2.20;;;18.50;98.00;;;;;;5155494;27;20445;-61
2023/10/04 09:47:00;;;;;;;4.40;2.23;;;18.50;98.00;;;;;;5155862;27;20445;-62
2023/10/04 09:49:31;;;;;;;3.00;2.00;;;18.70;98.00;;;;;;5156059;27;20441;-63
2023/10/04 09:52:00;;;;;;;3.50;2.20;;;18.80;98.00;;;;;;5155545;27;20457;-62
2023/10/04 09:54:28;;;;;;;5.87;2.23;;;19.00;98.00;;;;;;5155803;27;20509;-61
2023/10/04 09:56:55;;;;;;;3.20;2.17;;;19.10;98.00;;;;;;5155622;27;20795;-60
2023/10/04 09:59:28;;;;;;;6.43;2.37;;;19.20;98.00;;;;;;5155610;27;20476;-62
2023/10/04 10:01:56;;;;;;;8.03;2.10;;;19.20;98.00;;;;;;5138302;27;20453;-61
2023/10/04 10:04:28;;;;;;;2.90;2.10;;;19.30;98.00;;;;;;5155737;27;20528;-61
2023/10/04 10:07:09;;;;;;;6.43;2.07;;;19.50;98.00;;;;;;5155525;27;20453;-61
2023/10/04 10:09:43;;;;;;;2.90;2.00;;;19.70;98.00;;;;;;5155648;27;20505;-62
2023/10/04 10:12:12;;;;;;;4.90;2.20;;;19.70;98.00;;;;;;5155628;27;20492;-62
2023/10/04 10:14:40;;;;;;;3.70;2.37;;;19.90;98.00;;;;;;5155052;27;20497;-61
2023/10/04 10:17:10;;;;;;;3.77;1.97;;;20.20;98.00;;;;;;5155216;27;20522;-61
2023/10/04 10:19:38;;;;;;;5.00;2.00;;;20.50;98.00;;;;;;5137104;27;20441;-62
2023/10/04 10:22:08;;;;;;;2.90;1.90;;;20.60;98.00;;;;;;5154987;27;20453;-61
2023/10/04 10:24:42;;;;;;;3.20;2.00;;;20.60;98.00;;;;;;5137136;27;20449;-63
2023/10/04 10:27:10;;;;;;;3.37;1.70;;;20.70;98.00;;;;;;5154941;27;20453;-61
2023/10/04 10:29:37;;;;;;;3.53;1.63;;;20.70;98.00;;;;;;5154864;27;20448;-64
2023/10/04 10:32:13;;;;;;;3.80;2.10;;;21.00;98.00;;;;;;5154509;27;20537;-62
2023/10/04 10:34:42;;;;;;;3.03;1.83;;;21.20;98.00;;;;;;5154802;27;20468;-62
2023/10/04 10:37:12;;;;;;;4.80;1.77;;;21.20;98.00;;;;;;5154764;27;20453;-63
2023/10/04 10:39:45;;;;;;;5.00;1.80;;;21.10;98.00;;;;;;5154780;27;20477;-62
2023/10/04 10:42:13;;;;;;;4.60;2.03;;;21.20;98.00;;;;;;5154573;27;20488;-61
2023/10/04 10:44:40;;;;;;;2.83;1.80;;;21.10;98.00;;;;;;5154594;27;20839;-62
2023/10/04 10:47:16;;;;;;;2.60;2.10;;;20.90;98.00;;;;;;5154604;27;20525;-62
2023/10/04 10:49:49;;;;;;;4.37;1.60;;;21.10;98.00;;;;;;5154603;27;20522;-61
2023/10/04 10:52:34;;;;;;;2.90;1.90;;;21.40;98.00;;;;;;5154322;27;20453;-62
2023/10/04 10:55:05;;;;;;;3.20;1.80;;;21.70;98.00;;;;;;5154170;27;20445;-62
2023/10/04 10:57:33;;;;;;;5.03;2.00;;;21.60;96.40;;;;;;5154634;27;20497;-62
2023/10/04 11:00:07;;;;;;;3.40;1.77;;;21.10;96.90;;;;;;5136255;27;20437;-62
2023/10/04 11:02:34;;;;;;;2.40;1.80;;;21.20;98.00;;;;;;5154277;27;20460;-61
2023/10/04 11:05:03;;;;;;;3.10;1.73;;;21.50;97.50;;;;;;5154077;27;20485;-61
2023/10/04 11:07:30;;;;;;;3.93;1.90;;;22.00;95.70;;;;;;5154373;27;20498;-62
2023/10/04 11:09:58;;;;;;;3.70;1.87;;;21.60;96.10;;;;;;5154131;27;20460;-61
2023/10/04 11:12:26;;;;;;;2.90;1.77;;;21.10;96.40;;;;;;5154373;27;20449;-61
2023/10/04 11:14:54;;;;;;;3.50;1.93;;;20.60;97.00;;;;;;5154131;27;20449;-62
2023/10/04 11:17:21;;;;;;;2.60;1.70;;;20.70;97.20;;;;;;5154089;27;20445;-61
2023/10/04 11:19:50;;;;;;;3.20;1.80;;;20.50;98.00;;;;;;5154068;27;20450;-61
2023/10/04 11:22:20;;;;;;;5.90;2.53;;;20.60;98.00;;;;;;5154005;27;20480;-61
2023/10/04 11:24:49;;;;;;;3.43;1.70;;;20.10;98.00;;;;;;5153983;27;20450;-63
2023/10/04 11:27:22;;;;;;;5.17;2.03;;;20.00;98.00;;;;;;5153784;27;20487;-62
2023/10/04 11:29:50;;;;;;;4.70;2.00;;;20.70;98.00;;;;;;5153928;27;20453;-62
2023/10/04 11:32:17;;;;;;;2.00;1.60;;;21.50;98.00;;;;;;5153777;27;20445;-63
2023/10/04 11:34:45;;;;;;;2.23;1.67;;;22.00;98.00;;;;;;5153759;27;20449;-63
2023/10/04 11:37:13;;;;;;;2.80;1.80;;;22.00;98.00;;;;;;5153768;27;20449;-64
2023/10/04 11:39:48;;;;;;;2.60;1.87;;;21.80;98.00;;;;;;5135713;27;20449;-63
2023/10/04 11:42:21;;;;;;;2.23;1.80;;;21.90;98.00;;;;;;5154035;27;20523;-62
2023/10/04 11:44:48;;;;;;;5.60;2.00;;;21.90;98.00;;;;;;5153608;27;20446;-62
2023/10/04 11:47:26;;;;;;;2.07;1.70;;;21.90;98.00;;;;;;5153669;27;20540;-62
2023/10/04 11:49:58;;;;;;;2.40;1.70;;;21.90;98.00;;;;;;5153767;27;20449;-62
2023/10/04 11:52:29;;;;;;;13.43;2.10;;;21.60;98.00;;;;;;5153910;27;20536;-62
2023/10/04 11:54:58;;;;;;;3.43;1.80;;;21.90;96.20;;;;;;5153809;27;20453;-62
2023/10/04 11:57:26;;;;;;;3.30;1.80;;;22.40;95.30;;;;;;5153600;27;20467;-62
2023/10/04 11:59:56;;;;;;;2.90;1.97;;;23.00;92.00;;;;;;5153726;27;20954;-62
2023/10/04 12:02:23;;;;;;;2.83;2.00;;;23.50;89.00;;;;;;5153272;27;20982;-63
2023/10/04 12:04:50;;;;;;;3.13;1.70;;;23.90;89.00;;;;;;5155519;27;20457;-62
2023/10/04 12:07:18;;;;;;;3.83;1.80;;;23.60;90.70;;;;;;5157969;27;20460;-62
2023/10/04 12:09:45;;;;;;;2.53;1.80;;;23.00;91.40;;;;;;5157874;27;20967;-62
2023/10/04 12:12:16;;;;;;;2.20;1.77;;;22.40;92.30;;;;;;5157418;27;20819;-62
2023/10/04 12:14:45;;;;;;;2.30;1.87;;;22.50;93.30;;;;;;5157478;27;20534;-62
2023/10/04 12:17:12;;;;;;;3.47;1.77;;;22.60;93.00;;;;;;5157436;27;20452;-63
2023/10/04 12:19:41;;;;;;;5.63;1.80;;;22.10;92.70;;;;;;5157522;27;20449;-64
2023/10/04 12:22:11;;;;;;;6.00;2.07;;;22.20;92.60;;;;;;5157359;27;20481;-61
2023/10/04 12:24:40;;;;;;;3.27;1.93;;;22.50;91.60;;;;;;5157271;27;20449;-61
2023/10/04 12:27:08;;;;;;;3.47;1.70;;;22.70;90.70;;;;;;5157229;27;20504;-61
2023/10/04 12:29:37;;;;;;;2.10;1.80;;;22.80;90.90;;;;;;5157346;27;20876;-61
2023/10/04 12:32:06;;;;;;;4.93;2.00;;;23.20;90.40;;;;;;5157131;27;20437;-62
2023/10/04 12:34:34;;;;;;;3.40;1.70;;;23.60;90.30;;;;;;5157154;27;20508;-64
2023/10/04 12:37:01;;;;;;;4.37;1.80;;;24.10;88.70;;;;;;5157179;27;20448;-64
2023/10/04 12:39:28;;;;;;;2.30;1.83;;;24.50;87.00;;;;;;5157175;27;20441;-63
2023/10/04 12:44:41;;;;;;;3.20;1.90;;;24.70;85.40;;;;;;5155109;27;20456;-63
2023/10/04 12:47:09;;;;;;;2.70;1.83;;;24.50;86.70;;;;;;5157055;27;20445;-62
2023/10/04 12:49:37;;;;;;;3.67;1.83;;;24.30;86.40;;;;;;5156768;27;20559;-65
2023/10/04 12:52:06;;;;;;;2.77;1.87;;;24.30;84.90;;;;;;5156869;27;20524;-61
2023/10/04 12:54:34;;;;;;;4.07;2.07;;;23.90;87.10;;;;;;5156725;27;20488;-62
2023/10/04 12:57:03;;;;;;;2.53;1.70;;;23.50;87.90;;;;;;5156735;27;20502;-63
2023/10/04 12:59:30;;;;;;;2.93;1.80;;;23.30;87.90;;;;;;5156463;27;20966;-64